Latest Weather Observations for Cape Nelson

IDV60801

Issued at 11:05 pm EST Thursday 24 April 2014 (issued every 30 minutes, with the page automatically refreshed every 10 minutes)

About weather observations | Map of weather stations | Latest weather observations for VIC | Other Formats
Station Details ID: 090184 Name: CAPE NELSON LIGHTHOUSE Lat: -38.43 Lon: 141.54 Height: 45.4 m
Data from the previous 72 hours. | See also: Recent months at Cape Nelson
Date/Time
EST
Temp
°C
App
Temp
°C
Dew
Point
Rel
Hum
%
Delta-T
°C
Wind Press
QNH
hPa
Press
MSL
hPa
Rain
since 9 am
mm
Dir
 
Spd
km/h
Gust
km/h
Spd
kts
Gust
kts
24/11:00pm 9.0 6.1 4.8 75 1.9 N 9 11 5 6 1021.1 - 0.0
24/10:30pm 10.4 8.1 5.0 69 2.4 NNE 6 9 3 5 1021.1 - 0.0
24/10:00pm 11.9 9.4 4.6 61 3.3 E 7 11 4 6 1021.3 - 0.0
24/09:30pm 12.5 9.3 5.0 60 3.5 S 11 15 6 8 1021.2 - 0.0
24/09:00pm 12.7 10.0 5.4 61 3.4 S 9 15 5 8 1021.1 1021.1 0.0
24/08:30pm 12.8 9.6 5.2 60 3.5 S 11 15 6 8 1021.1 - 0.0
24/08:00pm 12.7 9.1 5.1 60 3.5 S 13 19 7 10 1021.0 - 0.0
24/07:30pm 12.7 9.5 5.1 60 3.5 S 11 17 6 9 1020.8 - 0.0
24/07:00pm 12.4 9.6 5.1 61 3.4 SSE 9 15 5 8 1020.5 - 0.0
24/06:30pm 12.3 9.5 5.0 61 3.4 S 9 15 5 8 1020.2 - 0.0
24/06:00pm 12.3 9.2 5.5 63 3.2 S 11 17 6 9 1019.9 1019.9 0.0
24/05:30pm 12.5 9.4 5.4 62 3.3 SSW 11 19 6 10 1019.5 - 0.0
24/05:00pm 13.0 9.6 5.7 61 3.4 S 13 22 7 12 1019.3 - 0.0
24/04:30pm 13.1 9.2 5.5 60 3.6 S 15 24 8 13 1019.2 - 0.0
24/04:00pm 13.3 9.2 6.4 63 3.3 S 17 30 9 16 1018.8 - 0.0
24/03:30pm 13.5 8.9 6.6 63 3.3 S 20 28 11 15 1018.7 - 0.0
24/03:00pm 14.4 10.4 6.5 59 3.8 S 17 24 9 13 1018.6 1018.6 0.0
24/02:30pm 14.1 10.9 6.7 61 3.6 S 13 24 7 13 1018.5 - 0.0
24/02:00pm 13.8 9.7 6.4 61 3.6 S 17 28 9 15 1018.5 - 0.0
24/01:30pm 13.8 9.9 6.9 63 3.4 S 17 28 9 15 1018.4 - 0.0
24/01:00pm 14.8 11.7 7.1 60 3.8 NE 13 20 7 11 1018.3 - 0.0
24/12:30pm 14.0 9.6 6.6 61 3.6 S 19 32 10 17 1018.3 - 0.0
24/12:00pm 14.7 10.9 6.0 56 4.2 ENE 15 22 8 12 1018.2 1018.2 0.0
24/11:30am 14.4 10.7 6.5 59 3.8 SSE 15 28 8 15 1018.0 - 0.0
24/11:00am 14.1 10.2 7.2 63 3.4 S 17 32 9 17 1017.9 - 0.0
24/10:30am 14.2 10.0 5.8 57 4.0 NE 17 35 9 19 1017.5 - 0.0
24/10:00am 14.1 9.3 5.5 56 4.1 NNE 20 30 11 16 1017.3 - 0.0
24/09:30am 13.6 8.8 4.7 55 4.1 NNE 19 35 10 19 1016.9 - 0.0
24/09:00am 13.8 9.0 4.9 55 4.1 NW 19 30 10 16 1016.5 1016.5 12.6
24/08:30am 13.4 8.8 3.5 51 4.5 ENE 17 33 9 18 1016.0 - 12.6
24/08:00am 13.1 7.9 2.6 49 4.6 S 19 41 10 22 1015.2 - 12.6
24/07:30am 13.1 7.5 5.3 59 3.6 SE 24 41 13 22 1014.4 - 12.6
24/07:00am 13.2 7.4 4.6 56 4.0 NE 24 43 13 23 1013.5 - 12.6
24/06:30am 13.4 7.9 6.0 61 3.5 NNE 24 46 13 25 1012.8 - 12.6
24/06:00am 13.3 7.5 4.2 54 4.2 NE 24 35 13 19 1012.3 1012.2 12.6
24/05:30am 13.5 8.3 7.3 66 3.0 NNE 24 39 13 21 1011.5 - 12.6
24/05:00am 13.9 8.6 8.5 70 2.7 N 26 41 14 22 1010.9 - 12.6
24/04:30am 13.7 9.1 9.6 76 2.1 NE 24 41 13 22 1010.1 - 12.6
24/04:04am 13.1 7.7 11.0 87 1.1 SE 30 50 16 27 1009.3 - 12.6
24/04:00am 12.9 8.3 11.1 89 0.9 NE 26 43 14 23 1009.4 - 12.6
24/03:39am 13.1 8.0 11.8 92 0.7 SSE 30 48 16 26 1008.9 - 12.4
24/03:30am 13.4 9.7 12.6 95 0.4 N 24 72 13 39 1008.7 - 12.4
24/03:27am 13.6 8.4 12.8 95 0.4 W 32 72 17 39 1009.0 - 12.0
24/03:04am 13.6 7.8 12.7 94 0.5 WNW 35 54 19 29 1009.2 - 10.8
24/03:00am 14.5 8.2 13.5 94 0.6 WNW 39 56 21 30 1008.8 1008.7 8.2
24/02:45am 14.2 7.0 13.2 94 0.6 W 43 72 23 39 1008.5 - 5.4
24/02:30am 14.3 7.6 13.3 94 0.6 NW 41 63 22 34 1008.3 - 1.4
24/02:00am 14.4 7.0 12.4 88 1.1 NW 43 63 23 34 1008.3 - 0.2
24/01:30am 14.4 7.3 12.3 87 1.1 NW 41 63 22 34 1008.6 - 0.2
24/01:25am 14.5 7.8 12.4 87 1.1 NW 39 63 21 34 1008.6 - 0.2
24/01:00am 14.2 7.8 12.1 87 1.1 NNW 37 50 20 27 1009.0 - 0.2
24/12:44am 14.0 8.9 11.9 87 1.1 NNW 30 52 16 28 1009.1 - 0.2
24/12:30am 14.0 8.3 11.9 87 1.1 NW 33 46 18 25 1009.3 - 0.2
24/12:02am 13.6 8.8 11.7 88 1.0 NNW 28 46 15 25 1009.6 - 0.2
24/12:00am 13.3 8.7 11.2 87 1.1 NNW 26 37 14 20 1009.7 1009.6 0.2
 
Date/Time
EST
Temp
°C
App
Temp
°C
Dew
Point
Rel
Hum
%
Delta-T
°C
Wind Press
QNH
hPa
Press
MSL
hPa
Rain
since 9 am
mm
Dir
 
Spd
km/h
Gust
km/h
Spd
kts
Gust
kts
23/11:47pm 13.4 8.4 11.1 86 1.2 NNW 28 46 15 25 1009.8 - 0.2
23/11:30pm 13.1 8.2 11.2 88 1.0 NNW 28 43 15 23 1010.1 - 0.2
23/11:00pm 12.4 7.7 10.8 90 0.8 NNW 26 37 14 20 1010.4 - 0.2
23/10:30pm 13.3 8.6 11.9 91 0.8 NNW 28 43 15 23 1010.8 - 0.2
23/10:00pm 14.6 9.0 10.2 75 2.3 NNW 30 44 16 24 1011.0 - 0.2
23/09:30pm 14.2 9.5 9.2 72 2.6 NNW 24 37 13 20 1010.9 - 0.2
23/09:00pm 14.6 9.9 9.2 70 2.8 NNW 24 37 13 20 1011.2 1011.1 0.2
23/08:30pm 14.7 8.5 9.3 70 2.8 NW 32 48 17 26 1011.4 - 0.2
23/08:23pm 14.8 9.3 9.2 69 2.9 NNW 28 48 15 26 1011.5 - 0.2
23/08:00pm 14.6 10.2 8.8 68 2.9 NNW 22 32 12 17 1011.7 - 0.2
23/07:30pm 13.7 9.3 6.6 62 3.4 NNW 19 26 10 14 1011.8 - 0.2
23/07:00pm 14.0 9.7 7.1 63 3.4 NW 19 26 10 14 1011.8 - 0.2
23/06:30pm 14.4 11.4 9.2 71 2.7 NNW 15 22 8 12 1011.6 - 0.2
23/06:00pm 15.1 12.3 11.3 78 2.0 NW 17 24 9 13 1011.7 1011.6 0.2
23/05:30pm 15.4 12.0 10.6 73 2.5 NW 19 26 10 14 1011.6 - 0.2
23/05:00pm 16.0 12.3 10.3 69 3.0 NW 20 30 11 16 1011.7 - 0.2
23/04:30pm 16.5 12.6 12.1 75 2.4 WNW 24 33 13 18 1011.8 - 0.2
23/04:00pm 17.8 14.4 11.4 66 3.5 NW 20 30 11 16 1012.0 - 0.2
23/03:30pm 17.9 13.5 10.5 62 4.0 NW 24 35 13 19 1012.3 - 0.2
23/03:00pm 17.9 12.8 10.5 62 4.0 NW 28 37 15 20 1012.5 1012.4 0.2
23/02:30pm 17.6 12.5 10.7 64 3.7 WNW 28 41 15 22 1012.9 - 0.2
23/02:00pm 17.8 12.7 10.7 63 3.8 NW 28 43 15 23 1013.2 - 0.2
23/01:30pm 17.5 12.0 10.6 64 3.7 NW 30 43 16 23 1013.4 - 0.0
23/01:00pm 17.2 11.8 10.8 66 3.4 NW 30 41 16 22 1014.0 - 0.0
23/12:30pm 16.2 11.3 9.8 66 3.4 NW 26 39 14 21 1014.5 - 0.0
23/12:00pm 16.4 12.4 10.5 68 3.1 NW 22 32 12 17 1015.0 1015.0 0.0
23/11:30am 15.1 11.7 10.7 75 2.3 NNW 19 26 10 14 1015.3 - 0.0
23/11:00am 14.4 10.4 10.4 77 2.1 NNW 22 30 12 16 1015.6 - 0.0
23/10:30am 13.8 10.9 11.1 84 1.4 N 17 26 9 14 1015.9 - 0.0
23/10:00am 13.5 11.0 11.0 85 1.3 NNW 15 20 8 11 1016.3 - 0.0
23/09:30am 14.2 11.4 11.2 82 1.6 NNW 17 24 9 13 1016.6 - 0.0
23/09:00am 13.1 9.8 11.0 87 1.1 NNW 19 26 10 14 1016.5 1016.5 3.0
23/08:30am 11.8 8.8 10.7 93 0.6 NNW 17 22 9 12 1016.4 - 3.0
23/08:00am 10.6 8.1 9.8 95 0.4 NNW 13 17 7 9 1016.2 - 3.0
23/07:30am 10.3 7.4 9.7 96 0.3 NNW 15 19 8 10 1016.1 - 3.0
23/07:00am 10.3 7.4 9.8 97 0.3 N 15 20 8 11 1015.7 - 3.0
23/06:30am 9.7 7.0 9.1 96 0.3 NNW 13 17 7 9 1016.0 - 3.0
23/06:00am 9.5 6.8 8.9 96 0.3 NNW 13 15 7 8 1016.1 1016.1 3.0
23/05:30am 9.7 7.0 9.1 96 0.3 NNW 13 17 7 9 1016.2 - 3.0
23/05:00am 9.7 7.0 9.1 96 0.3 NNW 13 17 7 9 1016.1 - 3.0
23/04:30am 9.1 6.2 8.3 95 0.4 NW 13 15 7 8 1016.1 - 3.0
23/04:00am 9.1 6.2 8.3 95 0.4 NW 13 17 7 9 1015.8 - 3.0
23/03:30am 8.8 6.6 8.0 95 0.4 N 9 13 5 7 1015.6 - 3.0
23/03:00am 9.0 6.9 8.1 94 0.4 NNW 9 11 5 6 1016.0 1016.0 3.0
23/02:30am 9.5 7.5 8.6 94 0.4 NNW 9 11 5 6 1016.3 - 3.0
23/02:00am 10.3 8.5 9.4 94 0.4 NNW 9 11 5 6 1016.7 - 2.8
23/01:30am 10.9 9.2 10.0 94 0.5 N 9 11 5 6 1016.9 - 2.8
23/01:00am 11.4 9.8 10.3 93 0.6 NNW 9 13 5 7 1017.1 - 2.8
23/12:30am 11.8 10.3 10.4 91 0.7 NNW 9 15 5 8 1017.3 - 2.4
23/12:00am 12.3 11.3 10.4 88 1.0 N 6 9 3 5 1017.4 1017.4 2.4
 
Date/Time
EST
Temp
°C
App
Temp
°C
Dew
Point
Rel
Hum
%
Delta-T
°C
Wind Press
QNH
hPa
Press
MSL
hPa
Rain
since 9 am
mm
Dir
 
Spd
km/h
Gust
km/h
Spd
kts
Gust
kts
22/11:30pm 13.7 11.6 11.0 84 1.4 W 13 17 7 9 1017.4 - 2.4
22/11:00pm 13.5 11.0 11.0 85 1.3 W 15 20 8 11 1017.7 - 2.4
22/10:30pm 13.1 11.5 11.7 91 0.7 W 11 19 6 10 1018.0 - 2.4
22/10:00pm 13.3 11.3 10.1 81 1.7 NNW 11 17 6 9 1017.8 - 0.0
22/09:30pm 14.3 12.2 9.9 75 2.3 W 11 19 6 10 1017.8 - 0.0
22/09:00pm 14.6 12.0 9.4 71 2.7 W 13 19 7 10 1017.6 1017.6 0.0
22/08:30pm 14.4 12.1 9.0 70 2.8 NW 11 19 6 10 1017.5 - 0.0
22/08:00pm 14.7 11.6 8.9 68 3.0 WNW 15 22 8 12 1017.5 - 0.0
22/07:30pm 14.5 11.0 8.7 68 2.9 WNW 17 22 9 12 1017.2 - 0.0
22/07:00pm 14.5 11.6 9.7 73 2.5 WNW 15 24 8 13 1017.0 - 0.0
22/06:30pm 14.5 11.6 9.5 72 2.6 NW 15 24 8 13 1016.6 - 0.0
22/06:00pm 14.8 10.5 9.2 69 2.9 W 22 30 12 16 1016.5 1016.5 0.0
22/05:30pm 14.7 12.1 10.7 77 2.1 W 15 20 8 11 1016.2 - 0.0
22/05:00pm 14.7 12.0 10.3 75 2.3 WNW 15 22 8 12 1016.1 - 0.0
22/04:30pm 15.1 13.1 10.1 72 2.6 NNW 11 19 6 10 1016.0 - 0.0
22/04:00pm 15.3 12.0 10.9 75 2.3 NW 19 33 10 18 1015.8 - 0.0
22/03:30pm 16.2 13.9 10.3 68 3.1 W 13 20 7 11 1015.6 - 0.0
22/03:00pm 15.9 13.2 10.2 69 3.0 W 15 20 8 11 1015.5 1015.5 0.0
22/02:30pm 16.0 12.8 9.9 67 3.2 W 17 22 9 12 1015.4 - 0.0
22/02:00pm 15.6 12.6 9.3 66 3.3 W 15 20 8 11 1015.4 - 0.0
22/01:30pm 15.7 12.7 9.1 65 3.4 W 15 20 8 11 1015.4 - 0.0
22/01:00pm 16.3 14.0 10.4 68 3.1 WNW 13 22 7 12 1015.5 - 0.0
22/12:30pm 17.0 15.1 10.4 65 3.5 WNW 11 17 6 9 1015.7 - 0.0
22/12:00pm 17.2 15.8 10.8 66 3.4 NNW 9 15 5 8 1015.8 1015.8 0.0
22/11:30am 16.8 14.9 10.6 67 3.3 N 11 17 6 9 1015.8 - 0.0
22/11:00am 16.7 14.8 10.5 67 3.3 N 11 17 6 9 1015.6 - 0.0
22/10:30am 16.1 14.1 10.0 67 3.2 NNE 11 17 6 9 1015.4 - 0.0
22/10:00am 16.0 14.1 10.5 70 2.9 NE 11 19 6 10 1015.1 - 0.0
22/09:30am 15.8 13.7 11.0 73 2.6 NE 13 20 7 11 1014.7 - 0.0
22/09:00am 15.2 12.7 11.2 77 2.1 S 15 26 8 14 1014.4 1014.3 11.4
22/08:30am 14.6 12.2 11.4 81 1.7 SE 15 28 8 15 1014.1 - 11.4
22/08:00am 14.7 12.4 11.8 83 1.6 ENE 15 22 8 12 1013.7 - 11.4
22/07:30am 14.5 12.3 12.0 85 1.4 NNE 15 26 8 14 1013.1 - 11.4
22/07:00am 14.1 12.0 12.5 90 0.9 NE 15 30 8 16 1012.8 - 11.4
22/06:30am 14.8 12.4 12.8 88 1.1 NNE 17 26 9 14 1012.4 - 11.4
22/06:00am 14.9 12.6 13.1 89 1.0 N 17 28 9 15 1011.9 1011.8 11.4
22/05:30am 14.8 12.8 12.8 88 1.1 N 15 24 8 13 1011.3 - 11.4
22/05:00am 14.9 13.3 13.9 94 0.6 NNE 15 24 8 13 1010.9 - 11.4
22/04:30am 15.3 13.1 14.5 95 0.5 W 19 26 10 14 1010.4 - 11.2
22/04:05am 15.3 11.5 14.7 96 0.3 WNW 28 48 15 26 1010.2 - 11.0
22/04:00am 15.1 11.6 14.5 96 0.3 NW 26 35 14 19 1009.8 - 10.2
22/03:30am 14.9 10.4 13.9 94 0.6 NW 30 44 16 24 1009.7 - 10.2
22/03:12am 14.8 9.4 14.0 95 0.5 NW 35 54 19 29 1009.9 - 10.2
22/03:00am 14.8 9.8 14.0 95 0.5 NW 33 46 18 25 1009.9 1009.8 10.2
22/02:32am 15.0 8.1 13.9 93 0.6 NW 43 61 23 33 1010.5 - 9.2
22/02:30am 15.1 8.0 14.0 93 0.6 WNW 44 61 24 33 1010.3 - 9.0
22/02:05am 15.4 11.6 14.6 95 0.5 NW 28 46 15 25 1010.7 - 7.8
22/02:00am 15.7 12.8 15.1 96 0.3 NW 24 39 13 21 1010.9 - 7.6
22/01:30am 15.9 14.0 15.1 95 0.5 NW 19 26 10 14 1010.8 - 5.2
22/01:00am 16.1 13.9 15.0 93 0.6 NW 20 30 11 16 1011.0 - 4.8
22/12:30am 16.3 12.9 14.8 91 0.9 NW 26 35 14 19 1010.8 - 4.0
22/12:00am 16.3 12.8 14.5 89 1.0 NW 26 37 14 20 1010.7 1010.6 4.0
 
Date/Time
EST
Temp
°C
App
Temp
°C
Dew
Point
Rel
Hum
%
Delta-T
°C
Wind Press
QNH
hPa
Press
MSL
hPa
Rain
since 9 am
mm
Dir
 
Spd
km/h
Gust
km/h
Spd
kts
Gust
kts
21/11:30pm 16.0 12.3 14.0 88 1.1 NNW 26 37 14 20 1009.4 - 4.0
21/11:24pm 16.1 12.1 14.1 88 1.1 NNW 28 46 15 25 1009.5 - 4.0
21/11:21pm 16.1 11.7 14.1 88 1.1 NNW 30 46 16 25 1009.6 - 4.0

Other Formats:

Comma delimited format used in spreadsheet applications
http://www.bom.gov.au/fwo/IDV60801/IDV60801.94826.axf

JavaScript Object Notation format (JSON) in row-major order
http://www.bom.gov.au/fwo/IDV60801/IDV60801.94826.json